Time;durP1;ratioP1;P1;durP2;ratioP2;P2;SDS_P1;SDS_P2;PMS_P1;PMS_P2;Temp;Humidity;BMP_temperature;BMP_pressure;BME280_temperature;BME280_humidity;BME280_pressure;Samples;Min_cycle;Max_cycle;Signal;HPM_P1;HPM_P2
2021/09/22 00:00:23;;;;;;;25.48;15.65;;;15.80;98.20;;;;;;5066016;28;20182;-71
2021/09/22 00:02:49;;;;;;;27.10;16.80;;;15.80;98.20;;;;;;5068898;28;20201;-72
2021/09/22 00:05:15;;;;;;;26.60;16.05;;;15.80;98.30;;;;;;5051471;28;20256;-72
2021/09/22 00:07:41;;;;;;;24.27;16.45;;;15.80;98.30;;;;;;5050853;28;20187;-70
2021/09/22 00:10:11;;;;;;;23.13;16.17;;;15.80;98.30;;;;;;5072524;28;20201;-71
2021/09/22 00:12:37;;;;;;;26.13;16.20;;;15.80;98.30;;;;;;5071290;28;20228;-72
2021/09/22 00:15:05;;;;;;;24.15;15.45;;;15.80;98.40;;;;;;5048425;28;20634;-71
2021/09/22 00:17:32;;;;;;;23.20;14.65;;;15.70;98.40;;;;;;5048331;28;20191;-72
2021/09/22 00:19:58;;;;;;;23.23;14.82;;;15.70;98.40;;;;;;5069198;28;20189;-73
2021/09/22 00:22:23;;;;;;;20.20;14.82;;;15.70;98.40;;;;;;5063280;28;20683;-71
2021/09/22 00:24:49;;;;;;;22.77;15.27;;;15.70;98.40;;;;;;5063587;28;20194;-73
2021/09/22 00:27:15;;;;;;;25.48;16.42;;;15.60;98.40;;;;;;5063417;28;20187;-73
2021/09/22 00:29:40;;;;;;;23.27;16.48;;;15.60;98.40;;;;;;5045675;28;20733;-72
2021/09/22 00:32:08;;;;;;;21.92;15.65;;;15.60;98.40;;;;;;5042493;28;20627;-74
2021/09/22 00:34:34;;;;;;;27.00;16.33;;;15.50;98.40;;;;;;5045415;28;20205;-72
2021/09/22 00:37:00;;;;;;;23.25;16.38;;;15.50;98.40;;;;;;5064163;28;20179;-72
2021/09/22 00:39:27;;;;;;;24.15;16.42;;;15.50;98.40;;;;;;5063258;28;20278;-72
2021/09/22 00:41:53;;;;;;;26.23;15.68;;;15.50;98.50;;;;;;5047989;28;20210;-71
2021/09/22 00:44:18;;;;;;;25.35;15.63;;;15.50;98.50;;;;;;5046239;28;20287;-72
2021/09/22 00:46:44;;;;;;;23.63;15.63;;;15.40;98.40;;;;;;5048053;28;20209;-71
2021/09/22 00:49:10;;;;;;;25.88;15.88;;;15.40;98.40;;;;;;5067430;28;20206;-72
2021/09/22 00:51:42;;;;;;;23.98;15.18;;;15.40;98.40;;;;;;5046518;28;20182;-72
2021/09/22 00:54:08;;;;;;;23.25;15.40;;;15.30;98.40;;;;;;5031817;28;20216;-72
2021/09/22 00:56:34;;;;;;;23.40;15.48;;;15.30;98.30;;;;;;5045337;28;20194;-70
2021/09/22 00:58:59;;;;;;;23.88;16.88;;;15.30;98.30;;;;;;5064185;28;20176;-70
2021/09/22 01:01:25;;;;;;;24.50;15.88;;;15.30;98.40;;;;;;5045158;28;20639;-73
2021/09/22 01:03:51;;;;;;;26.70;17.92;;;15.20;98.40;;;;;;5046439;28;20214;-71
2021/09/22 01:06:17;;;;;;;28.35;17.55;;;15.20;98.40;;;;;;5060766;28;20190;-71
2021/09/22 01:08:43;;;;;;;27.70;18.73;;;15.20;98.50;;;;;;5065375;28;20269;-73
2021/09/22 01:11:09;;;;;;;30.17;18.80;;;15.20;98.60;;;;;;5062109;28;20266;-72
2021/09/22 01:13:34;;;;;;;25.42;17.70;;;15.20;98.70;;;;;;5066810;28;20210;-72
2021/09/22 01:16:00;;;;;;;27.98;18.92;;;15.20;98.70;;;;;;5062415;28;20236;-72
2021/09/22 01:18:26;;;;;;;30.23;19.70;;;15.20;98.80;;;;;;5047194;28;20224;-72
2021/09/22 01:20:54;;;;;;;33.75;21.48;;;15.10;98.80;;;;;;5055900;28;20237;-72
2021/09/22 01:23:23;;;;;;;31.80;21.08;;;15.20;98.90;;;;;;5052769;28;20185;-72
2021/09/22 01:25:52;;;;;;;33.22;22.13;;;15.10;99.00;;;;;;5074491;28;20220;-71
2021/09/22 01:28:21;;;;;;;33.67;22.33;;;15.10;99.00;;;;;;5103348;27;20183;-72
2021/09/22 01:30:50;;;;;;;34.83;22.27;;;15.10;99.10;;;;;;5070892;28;20188;-71
2021/09/22 01:33:17;;;;;;;36.25;21.65;;;15.10;99.20;;;;;;5069796;28;20263;-71
2021/09/22 01:36:00;;;;;;;39.92;22.85;;;15.10;99.30;;;;;;5069777;28;20182;-71
2021/09/22 01:38:28;;;;;;;38.72;22.83;;;15.10;99.40;;;;;;5069966;28;20270;-72
2021/09/22 01:41:09;;;;;;;36.08;22.17;;;15.00;99.50;;;;;;5070595;28;20182;-72
2021/09/22 01:43:37;;;;;;;35.10;22.45;;;15.10;99.60;;;;;;5099909;28;20193;-71
2021/09/22 01:46:04;;;;;;;32.63;21.92;;;15.00;99.70;;;;;;5071532;28;20658;-72
2021/09/22 01:48:33;;;;;;;34.85;22.35;;;15.10;99.90;;;;;;5068971;28;20244;-72
2021/09/22 01:51:01;;;;;;;37.58;23.05;;;15.10;99.90;;;;;;5067145;28;20643;-72
2021/09/22 01:53:28;;;;;;;38.25;23.52;;;15.10;99.90;;;;;;5105135;27;20206;-72
2021/09/22 01:55:55;;;;;;;37.38;23.88;;;15.00;99.90;;;;;;5060934;28;20660;-71
2021/09/22 01:58:22;;;;;;;37.42;23.15;;;15.00;99.90;;;;;;5068316;28;20175;-73
2021/09/22 02:00:59;;;;;;;38.13;23.52;;;15.00;99.90;;;;;;5069273;28;20932;-72
2021/09/22 02:03:41;;;;;;;38.67;24.80;;;14.90;99.90;;;;;;5068285;28;20194;-71
2021/09/22 02:06:15;;;;;;;41.08;24.25;;;14.90;99.90;;;;;;5069916;28;20185;-70
2021/09/22 02:08:41;;;;;;;41.35;24.73;;;14.90;99.90;;;;;;5069954;28;20187;-70
2021/09/22 02:11:30;;;;;;;39.10;24.15;;;14.90;99.90;;;;;;5070783;28;20235;-70
2021/09/22 02:13:56;;;;;;;40.85;23.73;;;14.90;99.90;;;;;;5066832;28;20206;-71
2021/09/22 02:16:27;;;;;;;41.55;24.00;;;14.90;99.90;;;;;;5068921;28;20612;-71
2021/09/22 02:19:12;;;;;;;40.45;24.52;;;14.90;99.90;;;;;;5068532;28;20278;-70
2021/09/22 02:21:44;;;;;;;39.60;24.65;;;14.90;99.90;;;;;;5067932;28;20226;-71
2021/09/22 02:24:12;;;;;;;40.35;25.23;;;14.90;99.90;;;;;;5068211;28;20193;-71
2021/09/22 02:26:37;;;;;;;42.45;25.05;;;14.90;99.90;;;;;;5102422;27;20178;-71
2021/09/22 02:29:04;;;;;;;41.95;25.13;;;14.90;99.90;;;;;;5067971;28;20181;-71
2021/09/22 02:31:32;;;;;;;42.25;24.48;;;14.90;99.90;;;;;;5067071;28;20178;-71
2021/09/22 02:34:02;;;;;;;39.22;23.98;;;14.90;99.90;;;;;;5067384;28;20214;-71
2021/09/22 02:36:30;;;;;;;41.15;24.58;;;14.90;99.90;;;;;;5067749;28;20639;-71
2021/09/22 02:39:06;;;;;;;40.30;23.27;;;14.80;99.90;;;;;;5068027;28;20195;-72
2021/09/22 02:41:34;;;;;;;39.25;25.50;;;14.80;99.90;;;;;;5067873;28;20290;-71
2021/09/22 02:44:01;;;;;;;37.47;24.45;;;14.80;99.90;;;;;;5068725;28;20984;-71
2021/09/22 02:46:36;;;;;;;42.72;25.17;;;14.80;99.90;;;;;;5070130;28;20182;-72
2021/09/22 02:49:03;;;;;;;42.15;24.35;;;14.80;99.90;;;;;;5068202;28;20655;-72
2021/09/22 02:51:31;;;;;;;40.10;24.52;;;14.70;99.90;;;;;;5068080;28;20711;-72
2021/09/22 02:53:57;;;;;;;39.40;25.05;;;14.80;99.90;;;;;;5065984;28;20207;-72
2021/09/22 02:56:23;;;;;;;41.17;24.95;;;14.70;99.90;;;;;;5085505;28;20643;-72
2021/09/22 02:58:49;;;;;;;41.28;24.90;;;14.70;99.90;;;;;;5070367;28;21055;-72
2021/09/22 03:01:15;;;;;;;38.28;24.75;;;14.70;99.90;;;;;;5074054;28;20186;-70
2021/09/22 03:03:42;;;;;;;44.10;25.27;;;14.70;99.90;;;;;;5068518;28;20182;-70
2021/09/22 03:06:08;;;;;;;39.53;24.73;;;14.60;99.90;;;;;;5100357;28;20194;-70
2021/09/22 03:08:34;;;;;;;48.78;27.60;;;14.60;99.90;;;;;;5069481;28;20182;-71
2021/09/22 03:11:05;;;;;;;52.03;29.55;;;14.60;99.90;;;;;;5067735;28;20182;-70
2021/09/22 03:13:33;;;;;;;53.30;30.73;;;14.60;99.90;;;;;;5072871;28;20214;-71
2021/09/22 03:16:00;;;;;;;51.70;31.08;;;14.50;99.90;;;;;;5067251;28;20190;-71
2021/09/22 03:18:25;;;;;;;61.60;33.10;;;14.60;99.90;;;;;;5070588;28;20201;-71
2021/09/22 03:20:52;;;;;;;62.17;33.30;;;14.50;99.90;;;;;;5065824;28;20187;-71
2021/09/22 03:23:18;;;;;;;61.72;35.80;;;14.50;99.90;;;;;;5044922;28;20179;-71
2021/09/22 03:25:50;;;;;;;70.93;36.58;;;14.50;99.90;;;;;;5043975;28;20631;-71
2021/09/22 03:28:16;;;;;;;70.78;37.20;;;14.50;99.90;;;;;;5045011;28;20282;-70
2021/09/22 03:30:42;;;;;;;64.32;35.80;;;14.40;99.90;;;;;;5044432;28;20186;-71
2021/09/22 03:33:16;;;;;;;69.35;37.35;;;14.40;99.90;;;;;;5028902;28;20556;-72
2021/09/22 03:35:44;;;;;;;63.60;36.53;;;14.40;99.90;;;;;;5058848;28;20182;-72
2021/09/22 03:38:10;;;;;;;66.00;38.33;;;14.40;99.90;;;;;;5045377;28;20177;-72
2021/09/22 03:40:36;;;;;;;66.00;37.47;;;14.30;99.90;;;;;;5042716;28;20861;-71
2021/09/22 03:43:03;;;;;;;73.10;38.25;;;14.30;99.90;;;;;;5028634;28;20211;-72
2021/09/22 03:45:30;;;;;;;65.38;38.38;;;14.30;99.90;;;;;;5043119;28;20874;-72
2021/09/22 03:47:56;;;;;;;68.72;38.72;;;14.30;99.90;;;;;;5061594;28;20178;-73
2021/09/22 03:50:22;;;;;;;67.57;38.33;;;14.30;99.90;;;;;;5026467;28;20166;-73
2021/09/22 03:53:03;;;;;;;67.45;37.55;;;14.30;99.90;;;;;;5059962;28;20226;-72
2021/09/22 03:55:31;;;;;;;64.80;38.63;;;14.20;99.90;;;;;;5044399;28;20283;-72
2021/09/22 03:57:57;;;;;;;64.53;37.85;;;14.20;99.90;;;;;;5046970;28;20205;-72
2021/09/22 04:00:23;;;;;;;67.53;39.60;;;14.20;99.90;;;;;;5045778;28;20182;-71
2021/09/22 04:02:48;;;;;;;62.95;37.47;;;14.20;99.90;;;;;;5048953;28;20601;-73
2021/09/22 04:05:14;;;;;;;66.57;39.33;;;14.20;99.90;;;;;;5062782;28;20191;-70
2021/09/22 04:07:42;;;;;;;67.22;40.53;;;14.20;99.90;;;;;;5044711;28;20186;-71
2021/09/22 04:10:08;;;;;;;66.07;37.58;;;14.10;99.90;;;;;;5064119;28;20190;-71
2021/09/22 04:12:35;;;;;;;68.60;38.28;;;14.20;99.90;;;;;;5047786;28;20230;-70
2021/09/22 04:15:01;;;;;;;67.68;40.03;;;14.10;99.90;;;;;;5031005;28;20269;-70
2021/09/22 04:17:28;;;;;;;66.60;38.72;;;14.10;99.90;;;;;;5029656;28;20179;-71
2021/09/22 04:19:53;;;;;;;71.47;39.55;;;14.10;99.90;;;;;;5043012;28;20186;-71
2021/09/22 04:22:21;;;;;;;71.28;39.35;;;14.10;99.90;;;;;;5065259;28;20587;-70
2021/09/22 04:24:46;;;;;;;68.50;40.40;;;14.10;99.90;;;;;;5075634;28;20181;-70
2021/09/22 04:27:12;;;;;;;74.35;41.05;;;14.00;99.90;;;;;;5067039;28;20602;-70
2021/09/22 04:30:04;;;;;;;72.60;39.92;;;14.00;99.90;;;;;;5056774;28;20252;-71
2021/09/22 04:32:49;;;;;;;69.88;40.15;;;14.10;99.90;;;;;;5056927;28;20585;-70
2021/09/22 04:35:34;;;;;;;71.03;38.83;;;14.10;99.90;;;;;;5067563;28;20221;-70
2021/09/22 04:38:18;;;;;;;74.75;39.90;;;14.10;99.90;;;;;;5061557;28;20764;-70
2021/09/22 04:41:03;;;;;;;68.90;39.88;;;14.00;99.90;;;;;;5062877;28;20198;-70
2021/09/22 04:44:04;;;;;;;71.70;38.85;;;14.10;99.90;;;;;;5017450;28;20285;-70
2021/09/22 04:47:09;;;;;;;66.90;39.08;;;14.00;99.90;;;;;;5005033;28;20249;-72
2021/09/22 04:49:58;;;;;;;69.97;39.08;;;14.00;99.90;;;;;;5007088;28;20196;-71
2021/09/22 04:52:42;;;;;;;66.35;39.13;;;14.00;99.90;;;;;;5051879;28;20245;-70
2021/09/22 04:55:27;;;;;;;67.78;39.58;;;14.00;99.90;;;;;;5070593;28;20201;-70
2021/09/22 04:58:11;;;;;;;69.32;39.67;;;14.00;99.90;;;;;;5068721;28;20248;-72
2021/09/22 05:00:59;;;;;;;67.00;37.67;;;14.00;99.90;;;;;;5070669;28;20196;-71
2021/09/22 05:03:43;;;;;;;70.18;37.88;;;14.00;99.90;;;;;;5072176;28;20256;-72
2021/09/22 05:06:34;;;;;;;62.53;36.90;;;14.00;99.90;;;;;;5046882;28;20259;-70
2021/09/22 05:09:18;;;;;;;64.38;37.00;;;14.00;99.90;;;;;;5070749;28;20773;-75
2021/09/22 05:12:02;;;;;;;65.05;37.55;;;14.00;99.90;;;;;;5069050;28;20263;-70
2021/09/22 05:14:47;;;;;;;60.58;36.83;;;14.00;99.90;;;;;;5076443;28;20197;-74
2021/09/22 05:17:31;;;;;;;64.95;37.25;;;14.00;99.90;;;;;;5076501;28;20220;-74
2021/09/22 05:20:15;;;;;;;62.85;35.92;;;14.00;99.90;;;;;;5068290;28;20701;-74
2021/09/22 05:22:59;;;;;;;59.63;36.20;;;13.90;99.90;;;;;;5068231;28;20221;-74
2021/09/22 05:25:43;;;;;;;59.42;35.78;;;14.00;99.90;;;;;;5066973;28;20682;-74
2021/09/22 05:28:27;;;;;;;63.80;35.97;;;14.00;99.90;;;;;;5053422;28;20772;-72
2021/09/22 05:31:12;;;;;;;57.25;35.35;;;13.90;99.90;;;;;;5070955;28;20198;-73
2021/09/22 05:33:56;;;;;;;60.83;35.38;;;14.00;99.90;;;;;;5068870;28;20256;-73
2021/09/22 05:36:40;;;;;;;56.08;33.47;;;13.90;99.90;;;;;;5068270;28;20196;-73
2021/09/22 05:39:39;;;;;;;59.05;35.13;;;13.90;99.90;;;;;;5021979;28;20201;-73
2021/09/22 05:42:23;;;;;;;58.90;34.30;;;14.00;99.90;;;;;;5073967;28;20775;-73
2021/09/22 05:45:08;;;;;;;54.30;32.80;;;13.90;99.90;;;;;;5069961;28;20202;-73
2021/09/22 05:47:52;;;;;;;56.97;34.60;;;14.00;99.90;;;;;;5068713;28;20995;-73
2021/09/22 05:50:36;;;;;;;55.67;32.95;;;14.00;99.90;;;;;;5053076;28;20202;-72
2021/09/22 05:53:20;;;;;;;56.53;34.70;;;14.00;99.90;;;;;;5073906;28;20253;-72
2021/09/22 05:56:05;;;;;;;72.78;35.63;;;14.00;99.90;;;;;;5069479;28;20325;-73
2021/09/22 05:58:49;;;;;;;55.00;33.42;;;14.00;99.90;;;;;;5067971;28;20205;-72
2021/09/22 06:01:34;;;;;;;56.70;33.22;;;14.00;99.90;;;;;;5066834;28;20236;-75
2021/09/22 06:04:18;;;;;;;65.93;34.70;;;14.00;99.90;;;;;;5071875;28;20233;-73
2021/09/22 06:07:13;;;;;;;54.20;34.05;;;14.10;99.90;;;;;;5025036;28;20203;-76
2021/09/22 06:10:02;;;;;;;57.67;34.25;;;14.10;99.90;;;;;;5063196;28;20184;-73
2021/09/22 06:12:46;;;;;;;55.05;31.35;;;14.10;99.90;;;;;;5052508;28;20587;-68
2021/09/22 06:15:11;;;;;;;48.85;31.90;;;14.10;99.90;;;;;;5049088;28;20196;-70
2021/09/22 06:17:37;;;;;;;55.42;33.22;;;14.20;99.90;;;;;;5050552;28;20205;-71
2021/09/22 06:20:07;;;;;;;54.05;32.58;;;14.20;99.90;;;;;;5049488;28;20180;-69
2021/09/22 06:22:33;;;;;;;52.78;31.35;;;14.20;99.90;;;;;;5064001;28;20245;-68
2021/09/22 06:24:58;;;;;;;49.53;30.73;;;14.20;99.90;;;;;;5066836;28;20217;-70
2021/09/22 06:27:25;;;;;;;51.92;30.20;;;14.30;99.90;;;;;;5067121;28;20203;-69
2021/09/22 06:29:50;;;;;;;52.15;30.42;;;14.30;99.90;;;;;;5055215;28;20277;-70
2021/09/22 06:32:16;;;;;;;56.70;30.63;;;14.30;99.90;;;;;;5065949;28;20288;-70
2021/09/22 06:35:00;;;;;;;52.35;29.42;;;14.30;99.90;;;;;;5073456;28;20205;-70
2021/09/22 06:37:52;;;;;;;45.95;29.52;;;14.30;99.90;;;;;;5068136;28;20197;-73
2021/09/22 06:40:22;;;;;;;47.25;28.55;;;14.40;99.90;;;;;;5050955;28;20178;-73
2021/09/22 06:42:50;;;;;;;51.47;30.00;;;14.40;99.90;;;;;;5053015;28;20282;-73
2021/09/22 06:45:20;;;;;;;41.92;28.08;;;14.40;99.90;;;;;;5075671;28;20301;-74
2021/09/22 06:47:46;;;;;;;45.13;28.38;;;14.50;99.90;;;;;;5079450;28;20191;-74
2021/09/22 06:50:12;;;;;;;43.10;28.15;;;14.50;99.90;;;;;;5073012;28;20628;-73
2021/09/22 06:52:38;;;;;;;47.38;27.55;;;14.60;99.90;;;;;;5050308;28;20209;-74
2021/09/22 06:55:04;;;;;;;42.70;27.63;;;14.60;99.90;;;;;;5057334;28;20186;-73
2021/09/22 06:57:32;;;;;;;40.70;26.35;;;14.80;99.90;;;;;;5066198;28;20251;-71
2021/09/22 06:59:57;;;;;;;39.47;26.38;;;14.80;99.90;;;;;;5079097;28;20193;-73
2021/09/22 07:02:23;;;;;;;40.55;26.75;;;14.90;99.90;;;;;;5052964;28;20194;-73
2021/09/22 07:04:48;;;;;;;40.47;25.38;;;14.90;99.90;;;;;;5084912;28;20196;-73
2021/09/22 07:07:14;;;;;;;38.50;25.83;;;15.00;99.90;;;;;;5049514;28;20255;-72
2021/09/22 07:09:40;;;;;;;37.72;24.65;;;15.00;99.90;;;;;;5057195;28;20276;-73
2021/09/22 07:12:05;;;;;;;35.97;26.30;;;15.10;99.90;;;;;;5062566;28;20187;-73
2021/09/22 07:14:31;;;;;;;38.35;24.42;;;15.10;99.90;;;;;;5067250;28;20190;-69
2021/09/22 07:16:57;;;;;;;36.72;24.58;;;15.10;99.90;;;;;;5068435;28;20182;-71
2021/09/22 07:19:22;;;;;;;39.42;25.65;;;15.20;99.90;;;;;;5069093;28;20248;-72
2021/09/22 07:21:48;;;;;;;42.65;24.45;;;15.20;99.90;;;;;;5059948;28;20696;-73
2021/09/22 07:24:14;;;;;;;37.17;24.75;;;15.30;99.90;;;;;;5058356;28;20190;-71
2021/09/22 07:26:39;;;;;;;38.13;24.10;;;15.40;99.90;;;;;;5059216;28;20229;-73
2021/09/22 07:29:07;;;;;;;;;;;15.50;99.90;;;;;;5061383;28;20199;-71
2021/09/22 07:31:34;;;;;;;35.75;24.13;;;15.50;99.90;;;;;;5043927;28;20936;-72
2021/09/22 07:34:00;;;;;;;42.30;25.90;;;15.60;99.90;;;;;;5060291;28;20276;-72
2021/09/22 07:36:25;;;;;;;;;;;15.70;99.90;;;;;;5058038;28;20081;-71
2021/09/22 07:38:51;;;;;;;35.53;22.83;;;15.70;99.90;;;;;;5063062;28;20174;-71
2021/09/22 07:41:17;;;;;;;36.67;23.27;;;15.80;99.90;;;;;;5063637;28;20193;-71
2021/09/22 07:43:43;;;;;;;33.33;23.50;;;15.90;99.90;;;;;;5063946;28;20372;-71
2021/09/22 07:46:08;;;;;;;35.25;21.85;;;16.00;99.90;;;;;;5061235;28;20187;-71
2021/09/22 07:48:35;;;;;;;32.95;22.83;;;16.00;99.90;;;;;;5058346;28;20225;-71
2021/09/22 07:51:01;;;;;;;34.60;23.05;;;16.10;99.90;;;;;;5054628;28;20211;-70
2021/09/22 07:53:27;;;;;;;37.17;23.00;;;16.20;99.90;;;;;;5056788;28;20263;-71
2021/09/22 07:55:52;;;;;;;35.03;23.77;;;16.30;99.90;;;;;;5045764;28;20171;-70
2021/09/22 07:58:18;;;;;;;36.65;22.98;;;16.40;99.90;;;;;;5058085;28;20262;-72
2021/09/22 08:00:45;;;;;;;35.38;21.98;;;16.50;99.90;;;;;;5063002;28;20175;-72
2021/09/22 08:03:10;;;;;;;29.42;19.88;;;16.60;99.90;;;;;;5058053;28;20244;-71
2021/09/22 08:05:39;;;;;;;30.52;20.52;;;16.70;99.90;;;;;;5056768;28;20185;-72
2021/09/22 08:08:09;;;;;;;38.72;20.98;;;16.80;99.90;;;;;;5036071;28;20187;-72
2021/09/22 08:10:36;;;;;;;33.30;20.98;;;17.00;99.90;;;;;;5060295;28;20197;-71
2021/09/22 08:13:02;;;;;;;32.95;21.83;;;17.10;99.90;;;;;;5055658;28;20232;-71
2021/09/22 08:15:28;;;;;;;29.65;21.00;;;17.20;99.90;;;;;;5037523;28;20195;-73
2021/09/22 08:17:53;;;;;;;27.40;18.35;;;17.40;99.90;;;;;;5060450;28;20240;-72
2021/09/22 08:20:19;;;;;;;36.65;20.67;;;17.50;99.90;;;;;;5041294;28;20713;-71
2021/09/22 08:22:45;;;;;;;32.05;19.45;;;17.60;99.90;;;;;;5038289;28;20716;-71
2021/09/22 08:25:11;;;;;;;30.52;19.67;;;17.70;99.90;;;;;;5057695;28;20190;-71
2021/09/22 08:27:37;;;;;;;30.40;19.63;;;17.90;99.90;;;;;;5043805;28;20245;-72
2021/09/22 08:30:04;;;;;;;26.20;18.20;;;18.10;99.90;;;;;;5061525;28;20679;-71
2021/09/22 08:32:30;;;;;;;29.35;18.02;;;18.30;99.90;;;;;;5060943;28;20260;-71
2021/09/22 08:34:56;;;;;;;28.85;17.58;;;18.70;99.90;;;;;;5061423;28;25072;-72
2021/09/22 08:37:22;;;;;;;28.30;17.63;;;19.20;99.90;;;;;;5027597;28;20210;-73
2021/09/22 08:39:47;;;;;;;27.63;18.25;;;19.80;99.90;;;;;;5058831;28;20568;-72
2021/09/22 08:42:13;;;;;;;27.27;17.52;;;20.40;99.80;;;;;;5047079;28;20198;-73
2021/09/22 08:44:39;;;;;;;28.63;17.38;;;21.00;98.80;;;;;;5063020;28;20187;-72
2021/09/22 08:47:04;;;;;;;25.48;15.90;;;21.70;98.20;;;;;;5058910;28;20186;-73
2021/09/22 08:49:30;;;;;;;24.85;15.40;;;22.60;96.30;;;;;;5057926;28;20267;-70
2021/09/22 08:51:56;;;;;;;24.60;14.68;;;23.50;94.70;;;;;;5065978;28;20164;-71
2021/09/22 08:54:21;;;;;;;19.77;14.02;;;24.50;93.00;;;;;;5064255;28;20229;-70
2021/09/22 08:56:47;;;;;;;19.85;14.10;;;25.40;90.30;;;;;;5046115;28;20923;-71
2021/09/22 08:59:15;;;;;;;18.77;13.65;;;26.10;86.30;;;;;;5064567;28;20556;-70
2021/09/22 09:01:42;;;;;;;18.13;13.00;;;26.70;81.70;;;;;;5056101;28;20293;-72
2021/09/22 09:04:19;;;;;;;22.60;13.70;;;27.20;78.10;;;;;;5060196;28;20191;-72
2021/09/22 09:06:45;;;;;;;17.50;13.38;;;27.60;74.80;;;;;;5051581;28;20194;-71
2021/09/22 09:09:12;;;;;;;16.70;11.88;;;27.60;72.20;;;;;;5063458;28;20192;-70
2021/09/22 09:11:43;;;;;;;12.45;7.18;;;27.40;71.00;;;;;;5066669;28;20185;-72
2021/09/22 09:14:12;;;;;;;14.82;7.20;;;27.10;69.80;;;;;;5064376;28;20289;-72
2021/09/22 09:16:45;;;;;;;11.40;5.75;;;26.90;69.60;;;;;;5042924;28;20183;-71
2021/09/22 09:19:22;;;;;;;13.52;5.45;;;26.60;69.20;;;;;;5041236;28;20266;-73
2021/09/22 09:22:01;;;;;;;7.70;5.22;;;26.20;69.70;;;;;;5063823;28;20295;-72
2021/09/22 09:24:37;;;;;;;10.55;5.32;;;25.90;68.90;;;;;;5065066;28;20190;-71
2021/09/22 09:27:05;;;;;;;10.07;5.30;;;25.70;69.30;;;;;;5069672;28;20197;-71
2021/09/22 09:29:32;;;;;;;9.73;5.47;;;25.50;69.60;;;;;;5077788;28;20193;-72
2021/09/22 09:32:12;;;;;;;12.27;5.80;;;25.40;70.00;;;;;;5071037;28;20182;-71
2021/09/22 09:35:12;;;;;;;8.52;5.68;;;25.30;70.30;;;;;;5067613;28;20197;-71
2021/09/22 09:37:53;;;;;;;12.50;6.38;;;25.30;70.50;;;;;;5083610;28;20293;-73
2021/09/22 09:40:32;;;;;;;13.48;6.05;;;25.10;71.10;;;;;;5054028;28;20190;-71
2021/09/22 09:43:04;;;;;;;9.70;6.25;;;25.00;71.70;;;;;;5070575;28;20197;-72
2021/09/22 09:45:36;;;;;;;11.27;5.97;;;24.90;71.50;;;;;;5069225;28;20240;-72
2021/09/22 09:48:07;;;;;;;13.65;6.78;;;25.00;71.40;;;;;;5068668;28;20227;-72
2021/09/22 09:50:44;;;;;;;11.02;6.38;;;25.00;71.40;;;;;;5067074;28;20190;-71
2021/09/22 09:53:21;;;;;;;11.88;6.20;;;24.80;71.40;;;;;;5076975;28;20248;-72
2021/09/22 09:55:46;;;;;;;12.43;6.53;;;24.80;71.80;;;;;;5047803;28;20182;-70
2021/09/22 09:58:12;;;;;;;10.32;6.32;;;24.80;71.60;;;;;;5077184;28;20037;-72
2021/09/22 10:00:37;;;;;;;9.57;6.22;;;24.70;71.70;;;;;;5067863;28;20179;-72
2021/09/22 10:03:10;;;;;;;10.07;6.25;;;24.60;72.00;;;;;;5051128;28;20240;-71
2021/09/22 10:05:36;;;;;;;10.85;6.10;;;24.50;72.00;;;;;;5067765;28;20210;-71
2021/09/22 10:08:02;;;;;;;10.48;6.68;;;24.70;72.00;;;;;;5062605;28;20268;-73
2021/09/22 10:10:28;;;;;;;12.07;6.45;;;24.60;71.60;;;;;;5066798;28;20768;-72
2021/09/22 10:12:55;;;;;;;18.45;7.00;;;24.50;72.10;;;;;;5069100;28;20281;-72
2021/09/22 10:15:22;;;;;;;9.77;5.70;;;24.50;71.70;;;;;;5067804;28;21310;-72
2021/09/22 10:17:50;;;;;;;10.10;5.90;;;24.50;71.40;;;;;;5070876;28;20209;-72
2021/09/22 10:20:17;;;;;;;10.00;5.68;;;24.40;71.30;;;;;;5048022;28;20186;-72
2021/09/22 10:22:42;;;;;;;11.27;6.07;;;24.40;71.50;;;;;;5072226;28;20244;-72
2021/09/22 10:25:09;;;;;;;10.20;5.80;;;24.40;71.50;;;;;;5066980;28;20190;-73
2021/09/22 10:27:35;;;;;;;10.02;5.43;;;24.40;71.30;;;;;;5069209;28;20198;-73
2021/09/22 10:30:03;;;;;;;13.57;6.00;;;24.40;71.00;;;;;;5077988;28;20359;-74
2021/09/22 10:32:38;;;;;;;11.07;6.32;;;24.60;71.00;;;;;;5068160;28;20233;-71
2021/09/22 10:35:35;;;;;;;12.27;6.07;;;24.70;70.90;;;;;;5050340;28;20174;-73
2021/09/22 10:38:27;;;;;;;12.23;6.00;;;25.00;70.80;;;;;;5069259;28;20185;-72
2021/09/22 10:40:53;;;;;;;;;;;25.20;70.10;;;;;;5057843;28;20187;-74
2021/09/22 10:43:21;;;;;;;8.77;5.43;;;25.40;69.30;;;;;;5062818;28;20769;-74
2021/09/22 10:45:58;;;;;;;8.80;5.32;;;25.60;68.30;;;;;;5066829;28;20194;-73
2021/09/22 10:48:24;;;;;;;13.63;5.28;;;25.70;67.50;;;;;;5075321;28;20193;-73
2021/09/22 10:50:52;;;;;;;11.88;5.15;;;25.80;66.50;;;;;;5066362;28;20337;-71
2021/09/22 10:53:33;;;;;;;14.50;5.63;;;25.80;65.40;;;;;;5065415;28;20214;-73
2021/09/22 10:56:20;;;;;;;9.48;6.00;;;25.70;65.10;;;;;;5066748;28;20189;-72
2021/09/22 10:58:51;;;;;;;9.27;6.07;;;25.70;65.00;;;;;;5053272;28;20243;-74
2021/09/22 11:01:35;;;;;;;11.93;6.20;;;25.60;65.50;;;;;;5050625;28;20181;-72
2021/09/22 11:04:08;;;;;;;7.75;4.70;;;25.60;65.30;;;;;;5052309;28;20190;-73
2021/09/22 11:06:43;;;;;;;10.43;4.88;;;25.50;65.10;;;;;;5068330;28;20240;-74
2021/09/22 11:09:30;;;;;;;9.45;4.47;;;25.60;64.30;;;;;;5080615;28;20194;-73
2021/09/22 11:11:59;;;;;;;10.10;4.65;;;25.60;63.80;;;;;;5049399;28;20220;-72
2021/09/22 11:14:30;;;;;;;12.60;5.20;;;25.70;63.10;;;;;;5067373;28;20250;-74
2021/09/22 11:17:02;;;;;;;8.00;5.13;;;25.60;62.60;;;;;;5068499;28;20190;-73
2021/09/22 11:19:29;;;;;;;10.02;5.32;;;25.60;62.70;;;;;;5056946;28;20244;-72
2021/09/22 11:21:55;;;;;;;6.07;4.00;;;25.40;62.80;;;;;;5065861;28;20568;-71
2021/09/22 11:24:26;;;;;;;8.25;4.00;;;25.40;62.50;;;;;;5057155;28;20708;-73
2021/09/22 11:27:03;;;;;;;6.72;4.28;;;25.30;62.40;;;;;;5062719;28;20669;-73
2021/09/22 11:29:31;;;;;;;10.27;5.07;;;25.30;62.20;;;;;;5059593;28;20228;-74
2021/09/22 11:31:58;;;;;;;10.57;4.20;;;25.30;62.10;;;;;;5061175;28;20199;-73
2021/09/22 11:34:28;;;;;;;8.70;4.78;;;25.20;62.30;;;;;;5068911;28;20295;-72
2021/09/22 11:37:12;;;;;;;10.88;4.60;;;25.10;62.40;;;;;;5062666;28;20643;-75
2021/09/22 11:39:41;;;;;;;9.38;4.03;;;25.00;62.30;;;;;;5061406;28;20700;-73
2021/09/22 11:42:08;;;;;;;7.65;4.15;;;25.10;61.80;;;;;;5058108;28;20191;-71
2021/09/22 11:44:34;;;;;;;5.20;3.00;;;25.00;61.50;;;;;;5074282;28;20651;-71
2021/09/22 11:47:11;;;;;;;8.88;3.40;;;25.00;61.30;;;;;;5060549;28;20190;-70
2021/09/22 11:49:40;;;;;;;8.80;4.15;;;25.10;61.10;;;;;;5077408;28;20193;-71
2021/09/22 11:52:19;;;;;;;6.32;3.50;;;25.20;61.20;;;;;;5063314;28;20225;-72
2021/09/22 11:54:48;;;;;;;8.48;3.47;;;25.20;60.60;;;;;;5072527;28;20582;-70
2021/09/22 11:57:16;;;;;;;7.03;3.83;;;25.20;60.20;;;;;;5060071;28;20190;-73
2021/09/22 11:59:45;;;;;;;8.57;3.72;;;25.30;60.70;;;;;;5061740;28;20272;-74
2021/09/22 12:02:12;;;;;;;9.23;4.03;;;25.50;60.30;;;;;;5058773;28;20178;-71
2021/09/22 12:04:43;;;;;;;10.25;4.03;;;25.80;59.50;;;;;;5063697;28;20166;-73
2021/09/22 12:07:09;;;;;;;7.72;3.45;;;26.10;59.10;;;;;;5050977;28;20190;-76
2021/09/22 12:09:46;;;;;;;7.43;3.70;;;26.30;58.40;;;;;;5054908;28;20248;-72
2021/09/22 12:12:18;;;;;;;9.52;3.90;;;26.50;57.90;;;;;;5061310;28;20190;-74
2021/09/22 12:14:49;;;;;;;6.40;3.30;;;26.60;57.40;;;;;;5046562;28;20655;-74
2021/09/22 12:17:17;;;;;;;8.80;2.90;;;26.90;56.40;;;;;;5062706;28;20665;-71
2021/09/22 12:19:44;;;;;;;5.88;3.10;;;27.00;55.30;;;;;;5064890;28;20189;-73
2021/09/22 12:22:11;;;;;;;5.90;3.08;;;27.10;54.70;;;;;;5067616;28;20260;-73
2021/09/22 12:24:39;;;;;;;8.38;3.55;;;27.30;54.40;;;;;;5055826;28;20183;-72
2021/09/22 12:27:11;;;;;;;12.63;4.28;;;27.60;54.30;;;;;;5066431;28;20186;-74
2021/09/22 12:29:37;;;;;;;6.05;3.13;;;27.80;53.90;;;;;;5062622;28;20182;-71
2021/09/22 12:32:06;;;;;;;8.90;3.70;;;28.20;52.80;;;;;;5066561;28;20189;-75
2021/09/22 12:34:42;;;;;;;13.25;4.15;;;28.40;51.60;;;;;;5057726;28;20218;-74
2021/09/22 12:37:14;;;;;;;9.40;4.03;;;28.60;51.30;;;;;;5062261;28;20191;-74
2021/09/22 12:40:00;;;;;;;8.07;3.95;;;28.80;50.80;;;;;;5062703;28;20187;-74
2021/09/22 12:42:44;;;;;;;7.28;3.90;;;29.00;49.80;;;;;;5066237;28;21010;-72
2021/09/22 12:45:13;;;;;;;6.28;3.65;;;29.20;49.70;;;;;;5058153;28;20460;-71
2021/09/22 12:47:58;;;;;;;6.57;3.70;;;30.40;45.50;;;;;;5065444;28;20189;-73
2021/09/22 12:50:31;;;;;;;8.70;3.70;;;30.30;46.20;;;;;;5066664;28;20182;-76
2021/09/22 12:53:12;;;;;;;8.45;3.80;;;30.20;46.60;;;;;;5042852;28;20209;-76